Aérodrome :
LOGIN :

S'inscrire | Disclaimer

   EN    FR    IT 

 










Légende :    VFR   VFR Marginal   IFR   IFR Intensif   IFR Très Intensif
Visi : 
Plafond : 
>= 8 km
>= 3000ft
5 à 8 km
1000 à 3000 ft
1500m à 5 km
500 à 1000 ft
800 à 1500m
200 à 500 ft
< 800m
< 200 ft
Symboles :   Orages  Brouillard  Fortes neiges  Fortes précipitations  Vent > 20 kt
SIGMETs :   Divers  Orages  Givrage  Turbulence  Onde Orograph.  Cendres Volcan.







- Altitude de l'aérodrome : 20 ft


EBFN - Koksijde

DERNIER METAR :
  • 271303Z 28014KT 9999 FEW030 SCT220 22/16 Q1016 BLU FCST CANCEL

METARs EXPIRÉS :
  • 271255Z 29013KT 9999 FEW030 SCT220 23/17 Q1016 BLU BLU
  • 271225Z 21008KT 9999 FEW030 SCT220 27/18 Q1015 BLU BLU
  • 271203Z 19010KT 9999 FEW028TCU SCT220 27/17 Q1015 BLU BLU
  • 271155Z 18008KT 9999 FEW028TCU SCT220 27/17 Q1015 BLU BLU
  • 271125Z 16004KT 9999 FEW028TCU SCT080 BKN180 26/18 Q1015 BLU BLU TEMPO WHT
  • 271055Z 28007KT 9999 FEW040TCU SCT120 24/16 Q1015 BLU BLU TEMPO WHT
  • 271035Z 25009KT 9999 FEW040 SCT200 26/16 Q1015 BLU BLU TEMPO WHT

TAF COR TAF EBFN
Valide du 27 à 07h jusqu'au 27 à 16h UTC


2707/2716 12010KT 9999 SKC
BECMG 2710/2712 18010KT FEW 040
Pas de NOTAMs connus pour ce terrain.



MET'MAP, la Météo Aéronautique d'un coup d'oeil ! - Copyright ORBIFLY Décembre 2007 - Disclaimer

ORBIFLY MET'MAP TEAM :

Programmation & Développement : Alexandra Zaïnal
Conception & Développement : Baudouin d'Aumeries
Co-Programmation & Développement : Marc-Olivier Méhu
Soutien technique & logistique : Manuel Goepfert

Contact : metmap@orbifly.com




SOURCES & CREDITS :

   NOAA